Lerwick, United Kingdom
Current Conditions -  °F | °C
As of 2:50 PM on Thursday 23 Oct 2014 (Local Time) from EGPB Reporting Station
Rain Showers Rain Showers  
Wind Chill: 12°   Ceiling: 4600
Heat Index: 12°   Visibility: 6mi
Dew Point: 10°   Wind: 14mph
Humidity: 88%   Direction: 210°SSW
Pressure: 29.59"   Gusts: NA
Location:  60.15°N, 1.15°W
Report Text: EGPB 231350Z 21012KT 9999 VCSH FEW010 SCT017 BKN046 12/10 Q1002 TEMPO SHRA
Loading
Personal Weather Stations






























Interactive Weather Map
Tropical Storm Tracking
New forecast layout! Learn more

10-Day Weather Forecast

Advertisements
Track Severe Weather on mobile